GB-0156 weather

CLOSED Cricklewood Aerodrome
London, England, United Kingdom

Public forecast

Using degrees Celsius for public forecast. Weather courtesy of forecast.io.

METAR (pilot weather report)

Closest report is RAF Northolt, 7.7 nm (14.2 km) W. Retrieved 2018/12/19 15:50 UTC (20 minutes ago):

EGWU 191550Z 18005KT 9999 FEW030 BKN200 08/05 Q1005 BLU NOSIG

TAF (pilot weather forecast)

Closest forecast is RAF Northolt, 7.7 nm (14.2 km) W. Retrieved 2018/12/19 15:00 UTC (1 hour ago):

TAF EGWU 191350Z 1915/2009 19008KT 9999 FEW015 PROB30 TEMPO 1920/2007 20015G25KT 7000 SHRA BKN022